createdAt,value
2023-05-22T00:02:23.720Z,3.70
2023-05-22T00:05:30.716Z,3.92
2023-05-22T00:08:37.767Z,3.52
2023-05-22T00:11:43.626Z,3.50
2023-05-22T00:14:51.006Z,3.67
2023-05-22T00:17:57.017Z,3.58
2023-05-22T00:21:02.384Z,3.45
2023-05-22T00:24:08.483Z,4.10
2023-05-22T00:27:14.837Z,3.08
2023-05-22T00:30:22.133Z,3.80
2023-05-22T00:33:29.268Z,3.58
2023-05-22T00:36:34.661Z,3.50
2023-05-22T00:39:42.472Z,3.35
2023-05-22T00:42:50.384Z,3.47
2023-05-22T00:45:56.840Z,3.75
2023-05-22T00:49:03.225Z,3.67
2023-05-22T00:52:09.682Z,4.05
2023-05-22T00:55:17.605Z,4.30
2023-05-22T00:58:23.396Z,3.75
2023-05-22T01:01:30.567Z,3.65
2023-05-22T01:04:39.120Z,4.08
2023-05-22T01:07:45.322Z,4.00
2023-05-22T01:10:52.496Z,3.92
2023-05-22T01:14:39.925Z,4.30
2023-05-22T01:17:56.324Z,3.60
2023-05-22T01:21:30.111Z,3.60
2023-05-22T01:25:12.553Z,4.03
2023-05-22T01:28:51.485Z,3.50
2023-05-22T01:31:59.740Z,3.85
2023-05-22T01:35:12.591Z,4.67
2023-05-22T01:38:18.772Z,3.80
2023-05-22T01:41:24.326Z,3.62
2023-05-22T01:44:30.406Z,4.40
2023-05-22T01:47:36.692Z,4.37
2023-05-22T01:50:42.464Z,4.00
2023-05-22T01:53:52.787Z,4.25
2023-05-22T01:57:11.447Z,4.70
2023-05-22T02:00:25.623Z,5.08
2023-05-22T02:03:34.226Z,3.85
2023-05-22T02:06:41.017Z,4.20
2023-05-22T02:09:47.157Z,4.28
2023-05-22T02:12:53.229Z,4.10
2023-05-22T02:16:02.316Z,5.08
2023-05-22T02:19:15.898Z,4.78
2023-05-22T02:22:23.484Z,5.00
2023-05-22T02:25:30.208Z,4.55
2023-05-22T02:28:35.846Z,5.00
2023-05-22T02:31:41.152Z,4.95
2023-05-22T02:34:47.481Z,5.00
2023-05-22T02:37:53.886Z,4.80
2023-05-22T02:40:59.352Z,4.97
2023-05-22T02:44:04.456Z,4.78
2023-05-22T02:47:10.959Z,4.60
2023-05-22T02:50:17.242Z,4.58
2023-05-22T02:53:22.553Z,4.53
2023-05-22T02:56:29.441Z,4.05
2023-05-22T02:59:36.414Z,4.90
2023-05-22T03:02:43.981Z,4.58
2023-05-22T03:05:50.487Z,4.72
2023-05-22T03:08:56.749Z,4.95
2023-05-22T03:12:03.433Z,5.25
2023-05-22T03:15:11.927Z,4.83
2023-05-22T03:18:21.378Z,5.33
2023-05-22T03:21:28.369Z,4.70
2023-05-22T03:24:34.226Z,4.75
2023-05-22T03:27:39.992Z,5.33
2023-05-22T03:30:46.139Z,5.20
2023-05-22T03:33:56.040Z,5.80
2023-05-22T03:36:57.913Z,4.75
2023-05-22T03:40:05.044Z,4.75
2023-05-22T03:43:11.113Z,4.72
2023-05-22T03:46:17.336Z,5.55
2023-05-22T03:49:24.552Z,5.00
2023-05-22T03:52:29.751Z,5.35
2023-05-22T03:55:37.841Z,4.75
2023-05-22T03:58:45.556Z,5.15
2023-05-22T04:01:50.498Z,4.80
2023-05-22T04:04:57.407Z,4.92
2023-05-22T04:08:03.311Z,4.83
2023-05-22T04:11:10.179Z,4.50
2023-05-22T04:14:21.040Z,4.62
2023-05-22T04:17:26.738Z,4.87
2023-05-22T04:20:32.751Z,5.08
2023-05-22T04:23:42.520Z,4.60
2023-05-22T04:26:51.658Z,4.83
2023-05-22T04:29:58.544Z,5.28
2023-05-22T04:33:06.415Z,5.08
2023-05-22T04:36:12.690Z,5.28
2023-05-22T04:39:24.363Z,4.83
2023-05-22T04:42:30.546Z,5.22
2023-05-22T04:45:36.904Z,4.87
2023-05-22T04:48:44.498Z,4.85
2023-05-22T04:51:51.280Z,4.53
2023-05-22T04:55:00.662Z,5.55
2023-05-22T04:58:06.271Z,5.72
2023-05-22T05:01:13.171Z,5.58
2023-05-22T05:04:18.336Z,5.50
2023-05-22T05:07:25.118Z,5.12
2023-05-22T05:10:31.891Z,5.40
2023-05-22T05:13:38.619Z,5.28
2023-05-22T05:16:45.305Z,5.47
2023-05-22T05:19:51.346Z,4.55
2023-05-22T05:22:58.717Z,5.40
2023-05-22T05:26:05.400Z,4.92
2023-05-22T05:29:12.476Z,5.47
2023-05-22T05:32:23.463Z,5.15
2023-05-22T05:35:32.067Z,5.35
2023-05-22T05:38:40.769Z,5.50
2023-05-22T05:41:47.580Z,5.55
2023-05-22T05:44:53.840Z,5.40
2023-05-22T05:48:03.205Z,5.28
2023-05-22T05:51:18.301Z,4.58
2023-05-22T05:54:25.748Z,4.60
2023-05-22T05:57:33.447Z,4.85
2023-05-22T06:00:43.964Z,5.00
2023-05-22T06:03:52.409Z,4.12
2023-05-22T06:07:00.614Z,4.17
2023-05-22T06:10:08.654Z,4.08
2023-05-22T06:13:18.606Z,4.83
2023-05-22T06:16:24.264Z,4.22
2023-05-22T06:19:31.764Z,4.85
2023-05-22T06:22:40.096Z,4.72
2023-05-22T06:25:46.891Z,4.35
2023-05-22T06:28:53.175Z,4.58
2023-05-22T06:32:03.865Z,4.20
2023-05-22T06:35:10.566Z,3.72
2023-05-22T06:38:17.404Z,3.72
2023-05-22T06:41:24.977Z,4.03
2023-05-22T06:44:33.552Z,3.92
2023-05-22T06:47:39.934Z,3.77
2023-05-22T06:50:47.356Z,3.90
2023-05-22T06:53:53.047Z,3.72
2023-05-22T06:57:01.431Z,4.03
2023-05-22T07:00:10.340Z,3.92
2023-05-22T07:03:20.131Z,3.50
2023-05-22T07:06:41.219Z,4.42
2023-05-22T07:09:58.851Z,4.90
2023-05-22T07:13:05.430Z,4.22
2023-05-22T07:16:11.831Z,3.75
2023-05-22T07:19:20.533Z,4.62
2023-05-22T07:22:29.866Z,3.98
2023-05-22T07:25:36.897Z,3.80
2023-05-22T07:28:45.007Z,3.72
2023-05-22T07:31:52.288Z,3.10
2023-05-22T07:35:01.174Z,3.00
2023-05-22T07:38:08.771Z,3.72
2023-05-22T07:41:17.068Z,2.70
2023-05-22T07:44:23.095Z,3.37
2023-05-22T07:47:28.002Z,3.52
2023-05-22T07:50:34.780Z,2.90
2023-05-22T07:53:43.195Z,3.22
2023-05-22T07:56:49.082Z,2.50
2023-05-22T07:59:58.293Z,2.35
2023-05-22T08:03:06.637Z,5.60
2023-05-22T08:06:13.337Z,2.80
2023-05-22T08:09:20.813Z,2.30
2023-05-22T08:12:25.792Z,2.35
2023-05-22T08:15:30.865Z,2.30
2023-05-22T08:18:37.447Z,2.00
2023-05-22T08:21:44.706Z,2.95
2023-05-22T08:24:52.416Z,2.10
2023-05-22T08:28:03.100Z,2.30
2023-05-22T08:31:09.531Z,2.45
2023-05-22T08:34:21.199Z,2.20
2023-05-22T08:37:26.692Z,2.62
2023-05-22T08:40:32.122Z,2.50
2023-05-22T08:43:38.496Z,2.90
2023-05-22T08:46:46.645Z,3.08
2023-05-22T08:49:53.404Z,2.67
2023-05-22T08:53:09.727Z,2.27
2023-05-22T08:56:16.473Z,2.30
2023-05-22T08:59:21.381Z,2.10
2023-05-22T09:02:31.667Z,2.30
2023-05-22T09:05:38.267Z,2.62
2023-05-22T09:08:45.028Z,2.12
2023-05-22T09:11:51.015Z,2.80
2023-05-22T09:15:00.966Z,2.35
2023-05-22T09:18:06.800Z,2.20
2023-05-22T09:21:25.797Z,2.40
2023-05-22T09:24:24.632Z,2.15
2023-05-22T09:27:32.324Z,2.75
2023-05-22T09:30:39.881Z,2.40
2023-05-22T09:33:47.418Z,2.30
2023-05-22T09:36:53.770Z,2.47
2023-05-22T09:40:04.238Z,2.58
2023-05-22T09:43:11.593Z,2.50
2023-05-22T09:46:18.970Z,2.92
2023-05-22T09:49:25.602Z,2.70
2023-05-22T09:52:32.214Z,2.42
2023-05-22T09:55:38.487Z,3.12
2023-05-22T09:58:45.097Z,3.00
2023-05-22T10:01:54.148Z,2.60
2023-05-22T10:05:01.862Z,2.75
2023-05-22T10:08:12.488Z,2.80
2023-05-22T10:11:20.002Z,2.98
2023-05-22T10:14:27.356Z,3.10
2023-05-22T10:17:34.900Z,3.15
2023-05-22T10:20:42.237Z,2.83
2023-05-22T10:23:48.578Z,3.17
2023-05-22T10:26:55.229Z,3.30
2023-05-22T10:30:11.943Z,3.02
2023-05-22T10:33:36.411Z,2.30
2023-05-22T10:36:53.311Z,2.37
2023-05-22T10:40:22.852Z,2.27
2023-05-22T10:43:21.919Z,1.85
2023-05-22T10:46:14.680Z,1.80
2023-05-22T10:49:08.258Z,2.05
2023-05-22T10:51:55.267Z,2.17
2023-05-22T10:54:55.509Z,2.40
2023-05-22T10:57:48.735Z,2.08
2023-05-22T11:00:54.587Z,2.05
2023-05-22T11:04:24.340Z,1.70
2023-05-22T11:07:34.268Z,2.33
2023-05-22T11:11:04.220Z,1.80
2023-05-22T11:14:17.578Z,2.05
2023-05-22T11:17:24.868Z,8.63
2023-05-22T11:20:38.326Z,2.08
2023-05-22T11:23:47.955Z,1.77
2023-05-22T11:26:57.916Z,2.00
2023-05-22T11:30:05.530Z,1.70
2023-05-22T11:33:17.383Z,1.87
2023-05-22T11:36:23.760Z,2.05
2023-05-22T11:39:30.635Z,2.30
2023-05-22T11:42:35.680Z,2.25
2023-05-22T11:45:41.691Z,2.08
2023-05-22T11:48:51.269Z,1.90
2023-05-22T11:51:57.270Z,1.98
2023-05-22T11:55:08.333Z,2.20
2023-05-22T11:58:13.794Z,2.05
2023-05-22T12:01:19.537Z,2.12
2023-05-22T12:04:24.562Z,2.15
2023-05-22T12:07:29.940Z,2.30
2023-05-22T12:10:36.794Z,2.12
2023-05-22T12:13:43.158Z,2.05
2023-05-22T12:16:52.451Z,2.35
2023-05-22T12:19:59.332Z,2.17
2023-05-22T12:23:06.039Z,1.90
2023-05-22T12:26:23.888Z,2.50
2023-05-22T12:29:30.119Z,1.92
2023-05-22T12:32:37.322Z,2.10
2023-05-22T12:35:43.377Z,2.47
2023-05-22T12:38:49.489Z,2.17
2023-05-22T12:41:55.850Z,2.10
2023-05-22T12:45:02.467Z,2.00
2023-05-22T12:48:12.758Z,2.33
2023-05-22T12:51:20.086Z,2.10
2023-05-22T12:54:26.289Z,2.72
2023-05-22T12:57:55.392Z,2.12
2023-05-22T13:01:01.651Z,1.92
2023-05-22T13:04:15.179Z,3.52
2023-05-22T13:07:25.195Z,1.75
2023-05-22T13:10:30.402Z,1.87
2023-05-22T13:13:42.584Z,1.65
2023-05-22T13:16:50.872Z,2.60
2023-05-22T13:19:57.781Z,3.60
2023-05-22T13:23:05.615Z,2.83
2023-05-22T13:26:13.047Z,2.92
2023-05-22T13:29:23.177Z,2.90
2023-05-22T13:32:29.955Z,3.17
2023-05-22T13:35:36.302Z,2.77
2023-05-22T13:38:50.710Z,3.58
2023-05-22T13:45:02.178Z,1.90
2023-05-22T13:48:07.968Z,1.82
2023-05-22T13:51:13.672Z,2.55
2023-05-22T13:54:23.256Z,2.30
2023-05-22T13:57:30.510Z,2.27
2023-05-22T14:00:38.453Z,2.08
2023-05-22T14:03:44.372Z,2.30
2023-05-22T14:06:51.170Z,1.70
2023-05-22T14:09:59.647Z,1.72
2023-05-22T14:13:06.773Z,1.82
2023-05-22T14:16:13.281Z,1.77
2023-05-22T14:19:19.125Z,3.72
2023-05-22T14:22:25.629Z,2.20
2023-05-22T14:25:32.051Z,1.72
2023-05-22T14:28:43.213Z,1.90
2023-05-22T14:32:00.922Z,1.70
2023-05-22T14:35:06.586Z,1.98
2023-05-22T14:38:12.139Z,1.60
2023-05-22T14:41:19.728Z,1.95
2023-05-22T14:44:27.024Z,1.95
2023-05-22T14:47:33.505Z,1.90
2023-05-22T14:50:38.210Z,1.80
2023-05-22T14:53:44.175Z,2.12
2023-05-22T14:56:49.991Z,1.62
2023-05-22T14:59:56.410Z,1.70
2023-05-22T15:03:03.782Z,2.15
2023-05-22T15:06:10.468Z,1.70
2023-05-22T15:09:17.656Z,2.05
2023-05-22T15:12:24.928Z,1.85
2023-05-22T15:15:30.617Z,2.08
2023-05-22T15:18:36.491Z,2.05
2023-05-22T15:21:42.917Z,1.92
2023-05-22T15:24:50.931Z,2.30
2023-05-22T15:27:56.439Z,4.85
2023-05-22T15:31:02.326Z,2.33
2023-05-22T15:34:10.582Z,1.77
2023-05-22T15:37:16.266Z,1.90
2023-05-22T15:40:26.031Z,2.10
2023-05-22T15:43:32.727Z,1.95
2023-05-22T15:46:37.801Z,2.35
2023-05-22T15:49:43.239Z,2.15
2023-05-22T15:52:49.231Z,2.33
2023-05-22T15:55:54.942Z,2.40
2023-05-22T15:59:01.524Z,2.17
2023-05-22T16:02:08.816Z,2.15
2023-05-22T16:05:15.776Z,2.70
2023-05-22T16:08:22.530Z,2.30
2023-05-22T16:11:29.443Z,2.20
2023-05-22T16:14:37.439Z,3.05
2023-05-22T16:17:45.382Z,3.00
2023-05-22T16:20:52.233Z,2.70
2023-05-22T16:23:57.171Z,2.92
2023-05-22T16:27:04.094Z,2.47
2023-05-22T16:30:10.715Z,2.95
2023-05-22T16:33:17.982Z,2.98
2023-05-22T16:36:26.368Z,2.52
2023-05-22T16:39:33.454Z,2.85
2023-05-22T16:42:39.918Z,2.65
2023-05-22T16:45:46.376Z,2.50
2023-05-22T16:48:52.385Z,2.50
2023-05-22T16:51:59.067Z,2.50
2023-05-22T16:55:05.568Z,2.40
2023-05-22T16:58:10.794Z,2.50
2023-05-22T17:01:17.564Z,2.85
2023-05-22T17:04:25.326Z,2.47
2023-05-22T17:07:31.841Z,2.50
2023-05-22T17:10:39.200Z,2.70
2023-05-22T17:13:43.929Z,2.60
2023-05-22T17:16:49.157Z,2.67
2023-05-22T17:19:55.211Z,2.67
2023-05-22T17:23:01.931Z,2.77
2023-05-22T17:26:07.981Z,2.90
2023-05-22T17:29:14.092Z,3.75
2023-05-22T17:32:22.786Z,3.77
2023-05-22T17:35:28.506Z,5.00
2023-05-22T17:38:33.019Z,6.33
2023-05-22T17:41:39.792Z,5.72
2023-05-22T17:44:45.820Z,4.00
2023-05-22T17:47:54.847Z,3.30
2023-05-22T17:51:01.754Z,3.20
2023-05-22T17:54:10.202Z,4.30
2023-05-22T17:57:15.813Z,3.90
2023-05-22T18:00:23.604Z,3.02
2023-05-22T18:03:31.043Z,3.37
2023-05-22T18:06:37.470Z,3.30
2023-05-22T18:09:43.832Z,4.22
2023-05-22T18:12:49.317Z,3.40
2023-05-22T18:15:57.643Z,3.52
2023-05-22T18:19:03.454Z,3.62
2023-05-22T18:22:08.780Z,2.92
2023-05-22T18:25:13.899Z,3.00
2023-05-22T18:28:21.840Z,2.75
2023-05-22T18:31:29.784Z,3.60
2023-05-22T18:34:37.107Z,3.30
2023-05-22T18:37:43.859Z,2.92
2023-05-22T18:40:50.081Z,3.72
2023-05-22T18:43:57.068Z,3.60
2023-05-22T18:47:02.384Z,3.25
2023-05-22T18:50:09.000Z,3.72
2023-05-22T18:53:15.970Z,3.52
2023-05-22T18:56:21.493Z,3.60
2023-05-22T18:59:29.325Z,3.90
2023-05-22T19:02:34.251Z,3.47
2023-05-22T19:05:42.110Z,3.77
2023-05-22T19:08:48.416Z,3.92
2023-05-22T19:11:53.943Z,4.35
2023-05-22T19:15:00.787Z,3.50
2023-05-22T19:18:08.398Z,4.28
2023-05-22T19:21:15.735Z,4.30
2023-05-22T19:24:21.994Z,4.00
2023-05-22T19:27:27.415Z,3.77
2023-05-22T19:30:33.997Z,3.83
2023-05-22T19:33:43.980Z,4.30
2023-05-22T19:36:51.615Z,3.80
2023-05-22T19:39:57.860Z,3.67
2023-05-22T19:43:02.723Z,3.80
2023-05-22T19:46:09.011Z,4.17
2023-05-22T19:49:16.304Z,4.05
2023-05-22T19:52:23.729Z,3.90
2023-05-22T19:55:29.387Z,3.77
2023-05-22T19:58:35.834Z,4.72
2023-05-22T20:01:43.118Z,4.03
2023-05-22T20:04:50.233Z,3.40
2023-05-22T20:07:56.879Z,4.47
2023-05-22T20:11:03.264Z,4.45
2023-05-22T20:14:11.598Z,4.05
2023-05-22T20:17:17.856Z,4.00
2023-05-22T20:20:25.276Z,3.90
2023-05-22T20:23:31.427Z,4.28
2023-05-22T20:26:38.157Z,4.20
2023-05-22T20:29:44.143Z,4.55
2023-05-22T20:32:50.545Z,4.12
2023-05-22T20:35:58.954Z,4.12
2023-05-22T20:39:06.707Z,4.92
2023-05-22T20:42:14.964Z,4.53
2023-05-22T20:45:22.493Z,4.47
2023-05-22T20:48:29.146Z,4.03
2023-05-22T20:51:37.122Z,3.80
2023-05-22T20:54:45.715Z,4.03
2023-05-22T20:57:51.616Z,3.40
2023-05-22T21:00:58.557Z,4.40
2023-05-22T21:04:06.108Z,4.55
2023-05-22T21:07:12.154Z,3.70
2023-05-22T21:10:19.971Z,4.20
2023-05-22T21:13:25.665Z,3.90
2023-05-22T21:16:32.520Z,4.80
2023-05-22T21:19:39.011Z,4.37
2023-05-22T21:22:44.502Z,4.25
2023-05-22T21:25:51.575Z,4.00
2023-05-22T21:28:58.823Z,4.50
2023-05-22T21:32:05.041Z,4.20
2023-05-22T21:35:10.386Z,4.53
2023-05-22T21:38:16.013Z,4.35
2023-05-22T21:41:22.392Z,4.28
2023-05-22T21:44:28.268Z,3.85
2023-05-22T21:47:35.451Z,4.28
2023-05-22T21:50:41.036Z,4.53
2023-05-22T21:53:47.533Z,4.53
2023-05-22T21:56:54.230Z,4.65
2023-05-22T21:59:59.726Z,4.53
2023-05-22T22:03:04.845Z,4.42
2023-05-22T22:06:12.149Z,4.30
2023-05-22T22:09:19.797Z,4.92
2023-05-22T22:12:26.069Z,4.40
2023-05-22T22:15:32.746Z,4.78
2023-05-22T22:18:40.663Z,4.15
2023-05-22T22:21:46.248Z,4.10
2023-05-22T22:24:52.573Z,4.40
2023-05-22T22:28:00.878Z,4.78
2023-05-22T22:31:06.158Z,4.47
2023-05-22T22:34:12.590Z,4.45
2023-05-22T22:37:18.667Z,4.70
2023-05-22T22:40:26.845Z,4.67
2023-05-22T22:43:33.953Z,5.12
2023-05-22T22:46:40.179Z,5.12
2023-05-22T22:49:46.135Z,4.80
2023-05-22T22:52:53.046Z,4.65
2023-05-22T22:55:58.570Z,4.65
2023-05-22T22:59:06.209Z,5.22
2023-05-22T23:02:11.996Z,4.65
2023-05-22T23:05:11.849Z,4.30
2023-05-22T23:08:06.930Z,4.80
2023-05-22T23:11:12.207Z,4.70
2023-05-22T23:14:19.520Z,5.10
2023-05-22T23:17:27.746Z,4.67
2023-05-22T23:20:33.375Z,5.10
2023-05-22T23:23:38.822Z,4.78
2023-05-22T23:26:44.332Z,5.75
2023-05-22T23:29:50.043Z,5.10
2023-05-22T23:32:57.485Z,5.78
2023-05-22T23:36:03.602Z,6.00
2023-05-22T23:39:08.633Z,5.58
2023-05-22T23:42:15.642Z,5.03
2023-05-22T23:45:21.790Z,5.12
2023-05-22T23:48:27.202Z,5.25
2023-05-22T23:51:32.224Z,5.28
2023-05-22T23:54:38.912Z,5.05
2023-05-22T23:57:46.348Z,5.08
